Flight Track Log - Related Links

Times and Time Zones

All times are in EST time to prevent confusion due to time zone crossing. See the LYM134 flight status page for this flight to view local times or setup timezone preferences in your user account.

Time Position Orientation Groundspeed Altitude Reporting Facility
EST Latitude Longitude Course Direction KTS MPH feet Rate Location/Type
09:55PM 38.3333 -104.4833 North 137 158 7,500  Level Denver TRACON
09:56PM 38.3756 -104.4475 34° Northeast 149 171 9,100 1,374 Climbing Denver Center
09:57PM 38.4244 -104.4172 26° Northeast 164 189 10,500 878 Climbing Denver Center
09:58PM 38.4772 -104.4203 357° North 184 212 10,900 192 Climbing Denver Center
09:59PM 38.5358 -104.4211 359° North 204 235 10,900 179 Level Denver Center
09:59PM 38.5514 -104.4247 350° North 235 270 11,100  Climbing Denver Center
10:00PM 38.6586 -104.3968 North  Level FlightAware Approximate
10:00PM 38.6094 -104.4378 350° North 228 262 10,900  Level Denver Center
10:01PM 38.6725 -104.4400 358° North 234 269 11,000  Climbing Denver Center
10:02PM 38.7503 -104.4467 356° North 242 278 10,900 49 Descending Denver Center
10:03PM 38.8161 -104.4647 348° North 241 277 11,100 144 Climbing Denver Center
10:04PM 38.8786 -104.4797 349° North 241 277 11,200  Climbing Denver Center
10:05PM 38.9475 -104.4856 356° North 244 281 11,100 -44 Descending Denver Center
10:06PM 39.0406 -104.5014 352° North 238 274 11,100 -192 Level Denver Center
10:07PM 39.1067 -104.5228 346° North 239 275 10,700 -439 Descending Denver Center
10:08PM 39.1761 -104.5344 353° North 246 283 10,200 -732 Descending Denver Center
10:09PM 39.2500 -104.5606 345° North 261 300 9,200 -528 Descending Denver Center
10:10PM 39.3058 -104.5314 22° Northeast 272 313 9,100  Descending Denver Center
10:11PM 39.2561 -104.4611 132° Southeast 277 319 9,200  Climbing Denver Center
10:12PM 39.2258 -104.5650 249° West 281 323 9,100  Descending Denver Center
10:13PM 39.2328 -104.6611 275° West 276 318 9,200  Climbing Denver Center
10:15PM 39.2453 -104.7581 279° West 280 322 9,100 -49 Descending Denver Center
10:16PM 39.2889 -104.7203 34° Northeast 258 297 9,100 49 Level Denver Center
10:17PM 39.2742 -104.6206 101° East 264 304 9,200  Climbing Denver Center
10:18PM 39.2633 -104.5281 99° East 264 304 9,100 -48 Descending Denver Center
10:19PM 39.2703 -104.4403 84° East 279 321 9,100  Level Denver Center
10:20PM 39.3319 -104.4758 336° Northwest 258 297 9,100 -146 Level Denver Center
10:21PM 39.3875 -104.5467 315° West 263 303 8,800 -435 Descending Denver Center
10:22PM 39.4483 -104.6003 326° Northwest 264 304 8,200 -344 Descending Denver Center
10:23PM 39.4997 -104.6425 328° Northwest 217 250 8,100 -99 Descending Denver Center
10:24PM 39.5539 -104.6428 360° North 179 206 8,000 -48 Descending Denver Center
10:25PM 39.6031 -104.6439 359° North 178 205 8,000  Level Denver Center
10:26PM 39.6572 -104.6414 North 178 205 8,000 -49 Level Denver Center
10:27PM 39.7078 -104.6442 358° North 182 209 7,900 -484 Descending Denver Center
10:28PM 39.7583 -104.6425 North 185 213 7,000 -919 Descending Denver Center
10:29PM 39.8042 -104.6433 359° North 151 174 6,000 -768 Descending Denver Center
10:30PM 39.8369 -104.6419 North 138 159 5,400 -590 Descending Denver Center

Login

Don't have an account? Register now (free) for customized features, flight alerts, and more!